sensor_id;sensor_type;location;lat;lon;timestamp;temperature;humidity
46231;DHT22;31949;51.404;-0.038;2024-03-02T00:00:58;5.20;99.90
46231;DHT22;31949;51.404;-0.038;2024-03-02T00:03:26;5.20;99.90
46231;DHT22;31949;51.404;-0.038;2024-03-02T00:05:55;5.20;99.90
46231;DHT22;31949;51.404;-0.038;2024-03-02T00:08:25;5.20;99.90
46231;DHT22;31949;51.404;-0.038;2024-03-02T00:11:03;5.30;99.90
46231;DHT22;31949;51.404;-0.038;2024-03-02T00:13:31;5.20;99.90
46231;DHT22;31949;51.404;-0.038;2024-03-02T00:16:02;5.20;99.90
46231;DHT22;31949;51.404;-0.038;2024-03-02T00:18:34;5.20;99.90
46231;DHT22;31949;51.404;-0.038;2024-03-02T00:21:03;5.20;99.90
46231;DHT22;31949;51.404;-0.038;2024-03-02T00:23:35;5.10;99.90
46231;DHT22;31949;51.404;-0.038;2024-03-02T00:26:16;5.10;99.90
46231;DHT22;31949;51.404;-0.038;2024-03-02T00:28:44;5.10;99.90
46231;DHT22;31949;51.404;-0.038;2024-03-02T00:31:25;5.10;99.90
46231;DHT22;31949;51.404;-0.038;2024-03-02T00:34:14;5.10;99.90
46231;DHT22;31949;51.404;-0.038;2024-03-02T00:37:30;5.10;99.90
46231;DHT22;31949;51.404;-0.038;2024-03-02T00:40:04;5.10;99.90
46231;DHT22;31949;51.404;-0.038;2024-03-02T00:42:36;5.00;99.90
46231;DHT22;31949;51.404;-0.038;2024-03-02T00:45:10;5.00;99.90
46231;DHT22;31949;51.404;-0.038;2024-03-02T00:47:39;5.00;99.90
46231;DHT22;31949;51.404;-0.038;2024-03-02T00:50:13;4.90;99.90
46231;DHT22;31949;51.404;-0.038;2024-03-02T00:52:53;4.90;99.90
46231;DHT22;31949;51.404;-0.038;2024-03-02T00:55:21;4.90;99.90
46231;DHT22;31949;51.404;-0.038;2024-03-02T00:57:52;4.90;99.90
46231;DHT22;31949;51.404;-0.038;2024-03-02T01:00:23;5.00;99.90
46231;DHT22;31949;51.404;-0.038;2024-03-02T01:02:50;5.00;99.90
46231;DHT22;31949;51.404;-0.038;2024-03-02T01:05:25;5.00;99.90
46231;DHT22;31949;51.404;-0.038;2024-03-02T01:07:52;5.00;99.90
46231;DHT22;31949;51.404;-0.038;2024-03-02T01:10:20;5.00;99.90
46231;DHT22;31949;51.404;-0.038;2024-03-02T01:12:47;5.00;99.90
46231;DHT22;31949;51.404;-0.038;2024-03-02T01:15:14;5.00;99.90
46231;DHT22;31949;51.404;-0.038;2024-03-02T01:17:42;5.00;99.90
46231;DHT22;31949;51.404;-0.038;2024-03-02T01:20:11;5.00;99.90
46231;DHT22;31949;51.404;-0.038;2024-03-02T01:22:42;5.00;99.90
46231;DHT22;31949;51.404;-0.038;2024-03-02T01:25:17;5.00;99.90
46231;DHT22;31949;51.404;-0.038;2024-03-02T01:27:47;5.00;99.90
46231;DHT22;31949;51.404;-0.038;2024-03-02T01:30:20;5.00;99.90
46231;DHT22;31949;51.404;-0.038;2024-03-02T01:32:49;5.00;99.90
46231;DHT22;31949;51.404;-0.038;2024-03-02T01:35:17;5.00;99.90
46231;DHT22;31949;51.404;-0.038;2024-03-02T01:37:47;5.00;99.90
46231;DHT22;31949;51.404;-0.038;2024-03-02T01:40:17;5.00;99.90
46231;DHT22;31949;51.404;-0.038;2024-03-02T01:42:44;5.10;99.90
46231;DHT22;31949;51.404;-0.038;2024-03-02T01:45:13;5.10;99.90
46231;DHT22;31949;51.404;-0.038;2024-03-02T01:47:41;5.10;99.90
46231;DHT22;31949;51.404;-0.038;2024-03-02T01:50:12;5.10;99.90
46231;DHT22;31949;51.404;-0.038;2024-03-02T01:52:42;5.20;99.90
46231;DHT22;31949;51.404;-0.038;2024-03-02T01:55:17;5.20;99.90
46231;DHT22;31949;51.404;-0.038;2024-03-02T01:57:56;5.20;99.90
46231;DHT22;31949;51.404;-0.038;2024-03-02T02:00:28;5.30;99.90
46231;DHT22;31949;51.404;-0.038;2024-03-02T02:02:56;5.30;99.90
46231;DHT22;31949;51.404;-0.038;2024-03-02T02:05:24;5.30;99.90
46231;DHT22;31949;51.404;-0.038;2024-03-02T02:07:53;5.30;99.90
46231;DHT22;31949;51.404;-0.038;2024-03-02T02:10:23;5.40;99.90
46231;DHT22;31949;51.404;-0.038;2024-03-02T02:12:51;5.40;99.90
46231;DHT22;31949;51.404;-0.038;2024-03-02T02:15:36;5.40;99.90
46231;DHT22;31949;51.404;-0.038;2024-03-02T02:18:04;5.40;99.90
46231;DHT22;31949;51.404;-0.038;2024-03-02T02:20:31;5.50;99.90
46231;DHT22;31949;51.404;-0.038;2024-03-02T02:23:00;5.50;99.90
46231;DHT22;31949;51.404;-0.038;2024-03-02T02:25:28;5.50;99.90
46231;DHT22;31949;51.404;-0.038;2024-03-02T02:27:56;5.50;99.90
46231;DHT22;31949;51.404;-0.038;2024-03-02T02:30:29;5.50;99.90
46231;DHT22;31949;51.404;-0.038;2024-03-02T02:32:57;5.60;99.90
46231;DHT22;31949;51.404;-0.038;2024-03-02T02:35:25;5.60;99.90
46231;DHT22;31949;51.404;-0.038;2024-03-02T02:37:54;5.60;99.90
46231;DHT22;31949;51.404;-0.038;2024-03-02T02:40:22;5.70;99.90
46231;DHT22;31949;51.404;-0.038;2024-03-02T02:42:50;5.70;99.90
46231;DHT22;31949;51.404;-0.038;2024-03-02T02:45:19;5.70;99.90
46231;DHT22;31949;51.404;-0.038;2024-03-02T02:47:47;5.70;99.90
46231;DHT22;31949;51.404;-0.038;2024-03-02T02:50:14;5.80;99.90
46231;DHT22;31949;51.404;-0.038;2024-03-02T02:52:42;5.80;99.90
46231;DHT22;31949;51.404;-0.038;2024-03-02T02:55:11;5.80;99.90
46231;DHT22;31949;51.404;-0.038;2024-03-02T02:57:42;5.80;99.90
46231;DHT22;31949;51.404;-0.038;2024-03-02T03:00:15;5.80;99.90
46231;DHT22;31949;51.404;-0.038;2024-03-02T03:02:47;5.80;99.90
46231;DHT22;31949;51.404;-0.038;2024-03-02T03:05:17;5.90;99.90
46231;DHT22;31949;51.404;-0.038;2024-03-02T03:07:45;5.90;99.90
46231;DHT22;31949;51.404;-0.038;2024-03-02T03:10:12;5.90;99.90
46231;DHT22;31949;51.404;-0.038;2024-03-02T03:12:41;5.90;99.90
46231;DHT22;31949;51.404;-0.038;2024-03-02T03:15:11;5.90;99.90
46231;DHT22;31949;51.404;-0.038;2024-03-02T03:17:40;6.00;99.90
46231;DHT22;31949;51.404;-0.038;2024-03-02T03:20:08;6.00;99.90
46231;DHT22;31949;51.404;-0.038;2024-03-02T03:22:39;6.00;99.90
46231;DHT22;31949;51.404;-0.038;2024-03-02T03:25:07;6.00;99.90
46231;DHT22;31949;51.404;-0.038;2024-03-02T03:27:36;6.00;99.90
46231;DHT22;31949;51.404;-0.038;2024-03-02T03:30:04;6.00;99.90
46231;DHT22;31949;51.404;-0.038;2024-03-02T03:32:33;6.00;99.90
46231;DHT22;31949;51.404;-0.038;2024-03-02T03:35:01;6.00;99.90
46231;DHT22;31949;51.404;-0.038;2024-03-02T03:37:28;6.10;99.90
46231;DHT22;31949;51.404;-0.038;2024-03-02T03:40:01;6.00;99.90
46231;DHT22;31949;51.404;-0.038;2024-03-02T03:42:29;6.00;99.90
46231;DHT22;31949;51.404;-0.038;2024-03-02T03:44:57;6.00;99.90
46231;DHT22;31949;51.404;-0.038;2024-03-02T03:47:24;6.00;99.90
46231;DHT22;31949;51.404;-0.038;2024-03-02T03:49:51;6.00;99.90
46231;DHT22;31949;51.404;-0.038;2024-03-02T03:52:19;6.00;99.90
46231;DHT22;31949;51.404;-0.038;2024-03-02T03:54:46;6.10;99.90
46231;DHT22;31949;51.404;-0.038;2024-03-02T03:57:13;6.10;99.90
46231;DHT22;31949;51.404;-0.038;2024-03-02T03:59:40;6.10;99.90
46231;DHT22;31949;51.404;-0.038;2024-03-02T04:02:08;6.10;99.90
46231;DHT22;31949;51.404;-0.038;2024-03-02T04:04:36;6.10;99.90
46231;DHT22;31949;51.404;-0.038;2024-03-02T04:07:03;6.10;99.90
46231;DHT22;31949;51.404;-0.038;2024-03-02T04:09:31;6.10;99.90
46231;DHT22;31949;51.404;-0.038;2024-03-02T04:11:58;6.10;99.90
46231;DHT22;31949;51.404;-0.038;2024-03-02T04:14:25;6.10;99.90
46231;DHT22;31949;51.404;-0.038;2024-03-02T04:16:53;6.10;99.90
46231;DHT22;31949;51.404;-0.038;2024-03-02T04:19:20;6.20;99.90
46231;DHT22;31949;51.404;-0.038;2024-03-02T04:21:47;6.20;99.90
46231;DHT22;31949;51.404;-0.038;2024-03-02T04:24:14;6.20;99.90
46231;DHT22;31949;51.404;-0.038;2024-03-02T04:26:41;6.20;99.90
46231;DHT22;31949;51.404;-0.038;2024-03-02T04:29:08;6.20;99.90
46231;DHT22;31949;51.404;-0.038;2024-03-02T04:31:35;6.20;99.90
46231;DHT22;31949;51.404;-0.038;2024-03-02T04:34:03;6.20;99.90
46231;DHT22;31949;51.404;-0.038;2024-03-02T04:36:30;6.20;99.90
46231;DHT22;31949;51.404;-0.038;2024-03-02T04:38:57;6.20;99.90
46231;DHT22;31949;51.404;-0.038;2024-03-02T04:41:24;6.20;99.90
46231;DHT22;31949;51.404;-0.038;2024-03-02T04:43:51;6.20;99.90
46231;DHT22;31949;51.404;-0.038;2024-03-02T04:46:19;6.20;99.90
46231;DHT22;31949;51.404;-0.038;2024-03-02T04:48:46;6.20;99.90
46231;DHT22;31949;51.404;-0.038;2024-03-02T04:51:14;6.30;99.90
46231;DHT22;31949;51.404;-0.038;2024-03-02T04:53:41;6.20;99.90
46231;DHT22;31949;51.404;-0.038;2024-03-02T04:56:08;6.20;99.90
46231;DHT22;31949;51.404;-0.038;2024-03-02T04:58:54;6.20;99.90
46231;DHT22;31949;51.404;-0.038;2024-03-02T05:01:22;6.20;99.90
46231;DHT22;31949;51.404;-0.038;2024-03-02T05:03:49;6.20;99.90
46231;DHT22;31949;51.404;-0.038;2024-03-02T05:06:16;6.20;99.90
46231;DHT22;31949;51.404;-0.038;2024-03-02T05:08:43;6.30;99.90
46231;DHT22;31949;51.404;-0.038;2024-03-02T05:11:11;6.30;99.90
46231;DHT22;31949;51.404;-0.038;2024-03-02T05:13:57;6.30;99.90
46231;DHT22;31949;51.404;-0.038;2024-03-02T05:16:25;6.30;99.90
46231;DHT22;31949;51.404;-0.038;2024-03-02T05:18:52;6.30;99.90
46231;DHT22;31949;51.404;-0.038;2024-03-02T05:21:19;6.30;99.90
46231;DHT22;31949;51.404;-0.038;2024-03-02T05:23:46;6.30;99.90
46231;DHT22;31949;51.404;-0.038;2024-03-02T05:26:14;6.30;99.90
46231;DHT22;31949;51.404;-0.038;2024-03-02T05:28:41;6.40;99.90
46231;DHT22;31949;51.404;-0.038;2024-03-02T05:31:11;6.30;99.90
46231;DHT22;31949;51.404;-0.038;2024-03-02T05:33:39;6.30;99.90
46231;DHT22;31949;51.404;-0.038;2024-03-02T05:36:06;6.30;99.90
46231;DHT22;31949;51.404;-0.038;2024-03-02T05:38:37;6.30;99.90
46231;DHT22;31949;51.404;-0.038;2024-03-02T05:41:04;6.30;99.90
46231;DHT22;31949;51.404;-0.038;2024-03-02T05:43:32;6.30;99.90
46231;DHT22;31949;51.404;-0.038;2024-03-02T05:45:59;6.30;99.90
46231;DHT22;31949;51.404;-0.038;2024-03-02T05:48:26;6.30;99.90
46231;DHT22;31949;51.404;-0.038;2024-03-02T05:50:53;6.30;99.90
46231;DHT22;31949;51.404;-0.038;2024-03-02T05:53:21;6.30;99.90
46231;DHT22;31949;51.404;-0.038;2024-03-02T05:55:48;6.30;99.90
46231;DHT22;31949;51.404;-0.038;2024-03-02T05:58:20;6.30;99.90
46231;DHT22;31949;51.404;-0.038;2024-03-02T06:01:06;6.30;99.90
46231;DHT22;31949;51.404;-0.038;2024-03-02T06:03:34;6.30;99.90
46231;DHT22;31949;51.404;-0.038;2024-03-02T06:06:01;6.30;99.90
46231;DHT22;31949;51.404;-0.038;2024-03-02T06:08:28;6.30;99.90
46231;DHT22;31949;51.404;-0.038;2024-03-02T06:10:55;6.30;99.90
46231;DHT22;31949;51.404;-0.038;2024-03-02T06:13:23;6.40;99.90
46231;DHT22;31949;51.404;-0.038;2024-03-02T06:15:52;6.40;99.90
46231;DHT22;31949;51.404;-0.038;2024-03-02T06:18:20;6.40;99.90
46231;DHT22;31949;51.404;-0.038;2024-03-02T06:20:47;6.40;99.90
46231;DHT22;31949;51.404;-0.038;2024-03-02T06:23:14;6.40;99.90
46231;DHT22;31949;51.404;-0.038;2024-03-02T06:25:41;6.40;99.90
46231;DHT22;31949;51.404;-0.038;2024-03-02T06:28:08;6.40;99.90
46231;DHT22;31949;51.404;-0.038;2024-03-02T06:30:36;6.40;99.90
46231;DHT22;31949;51.404;-0.038;2024-03-02T06:33:03;6.50;99.90
46231;DHT22;31949;51.404;-0.038;2024-03-02T06:35:31;6.50;99.90
46231;DHT22;31949;51.404;-0.038;2024-03-02T06:37:58;6.50;99.90
46231;DHT22;31949;51.404;-0.038;2024-03-02T06:40:25;6.50;99.90
46231;DHT22;31949;51.404;-0.038;2024-03-02T06:42:52;6.60;99.90
46231;DHT22;31949;51.404;-0.038;2024-03-02T06:45:20;6.60;99.90
46231;DHT22;31949;51.404;-0.038;2024-03-02T06:47:47;6.60;99.90
46231;DHT22;31949;51.404;-0.038;2024-03-02T06:50:14;6.60;99.90
46231;DHT22;31949;51.404;-0.038;2024-03-02T06:52:42;6.60;99.90
46231;DHT22;31949;51.404;-0.038;2024-03-02T06:55:10;6.60;99.90
46231;DHT22;31949;51.404;-0.038;2024-03-02T06:57:37;6.60;99.90
46231;DHT22;31949;51.404;-0.038;2024-03-02T07:00:05;6.60;99.90
46231;DHT22;31949;51.404;-0.038;2024-03-02T07:02:35;6.70;99.90
46231;DHT22;31949;51.404;-0.038;2024-03-02T07:05:03;6.70;99.90
46231;DHT22;31949;51.404;-0.038;2024-03-02T07:07:31;6.60;99.90
46231;DHT22;31949;51.404;-0.038;2024-03-02T07:09:58;6.70;99.90
46231;DHT22;31949;51.404;-0.038;2024-03-02T07:12:26;6.70;99.90
46231;DHT22;31949;51.404;-0.038;2024-03-02T07:14:54;6.80;99.90
46231;DHT22;31949;51.404;-0.038;2024-03-02T07:17:32;6.80;99.90
46231;DHT22;31949;51.404;-0.038;2024-03-02T07:19:59;6.90;99.90
46231;DHT22;31949;51.404;-0.038;2024-03-02T07:22:26;6.90;99.90
46231;DHT22;31949;51.404;-0.038;2024-03-02T07:24:54;6.90;99.90
46231;DHT22;31949;51.404;-0.038;2024-03-02T07:27:21;7.00;99.90
46231;DHT22;31949;51.404;-0.038;2024-03-02T07:29:49;7.00;99.90
46231;DHT22;31949;51.404;-0.038;2024-03-02T07:32:16;7.10;99.90
46231;DHT22;31949;51.404;-0.038;2024-03-02T07:34:43;7.10;99.90
46231;DHT22;31949;51.404;-0.038;2024-03-02T07:37:10;7.20;99.90
46231;DHT22;31949;51.404;-0.038;2024-03-02T07:39:38;7.20;99.90
46231;DHT22;31949;51.404;-0.038;2024-03-02T07:42:06;7.20;99.90
46231;DHT22;31949;51.404;-0.038;2024-03-02T07:44:33;7.30;99.90
46231;DHT22;31949;51.404;-0.038;2024-03-02T07:47:01;7.30;99.90
46231;DHT22;31949;51.404;-0.038;2024-03-02T07:49:28;7.40;99.90
46231;DHT22;31949;51.404;-0.038;2024-03-02T07:51:55;7.40;99.90
46231;DHT22;31949;51.404;-0.038;2024-03-02T07:54:23;7.40;99.90
46231;DHT22;31949;51.404;-0.038;2024-03-02T07:56:50;7.40;99.90
46231;DHT22;31949;51.404;-0.038;2024-03-02T07:59:18;7.40;99.90
46231;DHT22;31949;51.404;-0.038;2024-03-02T08:01:46;7.40;99.90
46231;DHT22;31949;51.404;-0.038;2024-03-02T08:04:13;7.40;99.90
46231;DHT22;31949;51.404;-0.038;2024-03-02T08:06:52;7.40;99.90
46231;DHT22;31949;51.404;-0.038;2024-03-02T08:09:20;7.50;99.90
46231;DHT22;31949;51.404;-0.038;2024-03-02T08:11:47;7.50;99.90
46231;DHT22;31949;51.404;-0.038;2024-03-02T08:14:14;7.60;99.90
46231;DHT22;31949;51.404;-0.038;2024-03-02T08:16:42;7.70;99.90
46231;DHT22;31949;51.404;-0.038;2024-03-02T08:19:09;7.70;99.90
46231;DHT22;31949;51.404;-0.038;2024-03-02T08:21:37;7.70;99.90
46231;DHT22;31949;51.404;-0.038;2024-03-02T08:24:04;7.70;99.90
46231;DHT22;31949;51.404;-0.038;2024-03-02T08:26:31;7.90;99.90
46231;DHT22;31949;51.404;-0.038;2024-03-02T08:29:00;7.90;99.90
46231;DHT22;31949;51.404;-0.038;2024-03-02T08:31:29;8.00;99.90
46231;DHT22;31949;51.404;-0.038;2024-03-02T08:33:56;8.00;99.90
46231;DHT22;31949;51.404;-0.038;2024-03-02T08:36:24;8.00;99.90
46231;DHT22;31949;51.404;-0.038;2024-03-02T08:38:51;7.90;99.90
46231;DHT22;31949;51.404;-0.038;2024-03-02T08:41:19;8.00;99.90
46231;DHT22;31949;51.404;-0.038;2024-03-02T08:43:46;8.00;99.90
46231;DHT22;31949;51.404;-0.038;2024-03-02T08:46:13;8.00;99.90
46231;DHT22;31949;51.404;-0.038;2024-03-02T08:48:41;8.10;99.90
46231;DHT22;31949;51.404;-0.038;2024-03-02T08:51:08;8.10;99.90
46231;DHT22;31949;51.404;-0.038;2024-03-02T08:53:37;8.10;99.90
46231;DHT22;31949;51.404;-0.038;2024-03-02T08:56:05;8.10;99.90
46231;DHT22;31949;51.404;-0.038;2024-03-02T08:58:33;8.00;99.90
46231;DHT22;31949;51.404;-0.038;2024-03-02T09:01:00;8.00;99.90
46231;DHT22;31949;51.404;-0.038;2024-03-02T09:03:28;8.00;99.90
46231;DHT22;31949;51.404;-0.038;2024-03-02T09:05:55;8.00;99.90
46231;DHT22;31949;51.404;-0.038;2024-03-02T09:08:22;8.00;99.90
46231;DHT22;31949;51.404;-0.038;2024-03-02T09:10:50;7.90;99.90
46231;DHT22;31949;51.404;-0.038;2024-03-02T09:13:17;7.80;99.90
46231;DHT22;31949;51.404;-0.038;2024-03-02T09:15:44;7.80;99.90
46231;DHT22;31949;51.404;-0.038;2024-03-02T09:18:12;7.80;99.90
46231;DHT22;31949;51.404;-0.038;2024-03-02T09:20:40;7.90;99.90
46231;DHT22;31949;51.404;-0.038;2024-03-02T09:23:07;7.90;99.90
46231;DHT22;31949;51.404;-0.038;2024-03-02T09:25:35;8.00;99.90
46231;DHT22;31949;51.404;-0.038;2024-03-02T09:28:02;8.10;99.90
46231;DHT22;31949;51.404;-0.038;2024-03-02T09:30:30;8.20;99.90
46231;DHT22;31949;51.404;-0.038;2024-03-02T09:32:57;8.30;99.90
46231;DHT22;31949;51.404;-0.038;2024-03-02T09:35:27;8.40;99.90
46231;DHT22;31949;51.404;-0.038;2024-03-02T09:37:55;8.50;99.90
46231;DHT22;31949;51.404;-0.038;2024-03-02T09:40:23;8.50;99.90
46231;DHT22;31949;51.404;-0.038;2024-03-02T09:42:50;8.60;99.90
46231;DHT22;31949;51.404;-0.038;2024-03-02T09:45:23;8.70;99.90
46231;DHT22;31949;51.404;-0.038;2024-03-02T09:47:51;8.80;99.90
46231;DHT22;31949;51.404;-0.038;2024-03-02T09:50:18;8.80;99.90
46231;DHT22;31949;51.404;-0.038;2024-03-02T09:52:49;8.90;99.90
46231;DHT22;31949;51.404;-0.038;2024-03-02T09:55:18;8.80;99.90
46231;DHT22;31949;51.404;-0.038;2024-03-02T09:57:46;8.70;99.90
46231;DHT22;31949;51.404;-0.038;2024-03-02T10:00:15;8.70;99.90
46231;DHT22;31949;51.404;-0.038;2024-03-02T10:02:43;8.60;99.90
46231;DHT22;31949;51.404;-0.038;2024-03-02T10:05:10;8.60;99.90
46231;DHT22;31949;51.404;-0.038;2024-03-02T10:07:39;8.70;99.90
46231;DHT22;31949;51.404;-0.038;2024-03-02T10:10:14;8.80;99.90
46231;DHT22;31949;51.404;-0.038;2024-03-02T10:12:42;9.00;99.90
46231;DHT22;31949;51.404;-0.038;2024-03-02T10:15:09;9.00;99.90
46231;DHT22;31949;51.404;-0.038;2024-03-02T10:17:37;9.00;99.90
46231;DHT22;31949;51.404;-0.038;2024-03-02T10:20:38;8.90;99.90
46231;DHT22;31949;51.404;-0.038;2024-03-02T10:23:15;8.30;99.90
46231;DHT22;31949;51.404;-0.038;2024-03-02T10:25:44;7.80;99.90
46231;DHT22;31949;51.404;-0.038;2024-03-02T10:28:35;7.80;99.90
46231;DHT22;31949;51.404;-0.038;2024-03-02T10:31:02;7.80;99.90
46231;DHT22;31949;51.404;-0.038;2024-03-02T10:33:30;7.80;99.90
46231;DHT22;31949;51.404;-0.038;2024-03-02T10:35:57;7.60;99.90
46231;DHT22;31949;51.404;-0.038;2024-03-02T10:38:25;7.70;99.90
46231;DHT22;31949;51.404;-0.038;2024-03-02T10:40:52;7.70;99.90
46231;DHT22;31949;51.404;-0.038;2024-03-02T10:43:20;7.70;99.90
46231;DHT22;31949;51.404;-0.038;2024-03-02T10:45:49;7.70;99.90
46231;DHT22;31949;51.404;-0.038;2024-03-02T10:48:18;7.50;99.90
46231;DHT22;31949;51.404;-0.038;2024-03-02T10:50:45;7.50;99.90
46231;DHT22;31949;51.404;-0.038;2024-03-02T10:53:13;7.50;99.90
46231;DHT22;31949;51.404;-0.038;2024-03-02T10:55:40;7.30;99.90
46231;DHT22;31949;51.404;-0.038;2024-03-02T10:58:11;7.40;99.90
46231;DHT22;31949;51.404;-0.038;2024-03-02T11:00:39;7.40;99.90
46231;DHT22;31949;51.404;-0.038;2024-03-02T11:03:09;7.50;99.90
46231;DHT22;31949;51.404;-0.038;2024-03-02T11:05:43;7.50;99.90
46231;DHT22;31949;51.404;-0.038;2024-03-02T11:08:13;7.60;99.90
46231;DHT22;31949;51.404;-0.038;2024-03-02T11:10:48;7.70;99.90
46231;DHT22;31949;51.404;-0.038;2024-03-02T11:13:24;7.50;99.90
46231;DHT22;31949;51.404;-0.038;2024-03-02T11:15:55;7.50;99.90
46231;DHT22;31949;51.404;-0.038;2024-03-02T11:18:26;7.40;99.90
46231;DHT22;31949;51.404;-0.038;2024-03-02T11:20:54;7.40;99.90
46231;DHT22;31949;51.404;-0.038;2024-03-02T11:23:35;7.30;99.90
46231;DHT22;31949;51.404;-0.038;2024-03-02T11:26:19;7.10;99.90
46231;DHT22;31949;51.404;-0.038;2024-03-02T11:28:47;7.20;99.90
46231;DHT22;31949;51.404;-0.038;2024-03-02T11:31:15;7.40;99.90
46231;DHT22;31949;51.404;-0.038;2024-03-02T11:33:42;7.50;99.90
46231;DHT22;31949;51.404;-0.038;2024-03-02T11:36:10;7.60;99.90
46231;DHT22;31949;51.404;-0.038;2024-03-02T11:38:39;7.80;99.90
46231;DHT22;31949;51.404;-0.038;2024-03-02T11:41:10;7.90;99.90
46231;DHT22;31949;51.404;-0.038;2024-03-02T11:43:39;7.90;99.90
46231;DHT22;31949;51.404;-0.038;2024-03-02T11:46:06;7.90;99.90
46231;DHT22;31949;51.404;-0.038;2024-03-02T11:48:36;8.10;99.90
46231;DHT22;31949;51.404;-0.038;2024-03-02T11:51:05;8.30;99.90
46231;DHT22;31949;51.404;-0.038;2024-03-02T11:53:33;8.40;99.90
46231;DHT22;31949;51.404;-0.038;2024-03-02T11:56:02;8.30;99.90
46231;DHT22;31949;51.404;-0.038;2024-03-02T11:58:30;8.50;99.90
46231;DHT22;31949;51.404;-0.038;2024-03-02T12:00:57;8.60;99.90
46231;DHT22;31949;51.404;-0.038;2024-03-02T12:03:26;8.60;99.90
46231;DHT22;31949;51.404;-0.038;2024-03-02T12:05:54;8.80;99.90
46231;DHT22;31949;51.404;-0.038;2024-03-02T12:08:21;8.70;99.90
46231;DHT22;31949;51.404;-0.038;2024-03-02T12:11:02;8.70;99.90
46231;DHT22;31949;51.404;-0.038;2024-03-02T12:13:31;8.80;99.90
46231;DHT22;31949;51.404;-0.038;2024-03-02T12:15:58;8.90;99.90
46231;DHT22;31949;51.404;-0.038;2024-03-02T12:18:26;8.90;99.90
46231;DHT22;31949;51.404;-0.038;2024-03-02T12:20:54;9.00;99.90
46231;DHT22;31949;51.404;-0.038;2024-03-02T12:23:26;9.10;99.90
46231;DHT22;31949;51.404;-0.038;2024-03-02T12:25:53;9.00;99.90
46231;DHT22;31949;51.404;-0.038;2024-03-02T12:28:21;8.90;99.90
46231;DHT22;31949;51.404;-0.038;2024-03-02T12:30:48;8.70;99.90
46231;DHT22;31949;51.404;-0.038;2024-03-02T12:33:17;8.90;99.90
46231;DHT22;31949;51.404;-0.038;2024-03-02T12:35:44;9.20;99.90
46231;DHT22;31949;51.404;-0.038;2024-03-02T12:38:11;9.20;99.90
46231;DHT22;31949;51.404;-0.038;2024-03-02T12:40:39;9.20;99.90
46231;DHT22;31949;51.404;-0.038;2024-03-02T12:43:06;9.20;99.90
46231;DHT22;31949;51.404;-0.038;2024-03-02T12:45:37;9.20;99.90
46231;DHT22;31949;51.404;-0.038;2024-03-02T12:48:05;9.30;99.90
46231;DHT22;31949;51.404;-0.038;2024-03-02T12:50:33;9.40;99.90
46231;DHT22;31949;51.404;-0.038;2024-03-02T12:53:01;9.50;99.90
46231;DHT22;31949;51.404;-0.038;2024-03-02T12:55:29;9.50;99.90
46231;DHT22;31949;51.404;-0.038;2024-03-02T12:57:56;9.50;99.90
46231;DHT22;31949;51.404;-0.038;2024-03-02T13:00:26;9.50;99.90
46231;DHT22;31949;51.404;-0.038;2024-03-02T13:02:54;9.40;99.90
46231;DHT22;31949;51.404;-0.038;2024-03-02T13:05:32;9.40;99.90
46231;DHT22;31949;51.404;-0.038;2024-03-02T13:08:00;9.50;99.90
46231;DHT22;31949;51.404;-0.038;2024-03-02T13:10:31;9.70;99.90
46231;DHT22;31949;51.404;-0.038;2024-03-02T13:12:59;9.70;99.90
46231;DHT22;31949;51.404;-0.038;2024-03-02T13:15:27;9.60;99.90
46231;DHT22;31949;51.404;-0.038;2024-03-02T13:17:58;9.70;99.90
46231;DHT22;31949;51.404;-0.038;2024-03-02T13:20:31;9.90;99.90
46231;DHT22;31949;51.404;-0.038;2024-03-02T13:23:02;9.90;99.90
46231;DHT22;31949;51.404;-0.038;2024-03-02T13:25:30;9.80;99.90
46231;DHT22;31949;51.404;-0.038;2024-03-02T13:27:59;9.90;99.90
46231;DHT22;31949;51.404;-0.038;2024-03-02T13:30:27;10.20;99.90
46231;DHT22;31949;51.404;-0.038;2024-03-02T13:32:55;10.00;99.90
46231;DHT22;31949;51.404;-0.038;2024-03-02T13:35:22;9.80;99.90
46231;DHT22;31949;51.404;-0.038;2024-03-02T13:37:49;9.80;99.90
46231;DHT22;31949;51.404;-0.038;2024-03-02T13:40:17;10.00;99.90
46231;DHT22;31949;51.404;-0.038;2024-03-02T13:42:47;10.20;99.90
46231;DHT22;31949;51.404;-0.038;2024-03-02T13:45:15;10.10;99.90
46231;DHT22;31949;51.404;-0.038;2024-03-02T13:47:42;10.10;99.90
46231;DHT22;31949;51.404;-0.038;2024-03-02T13:50:10;10.20;99.90
46231;DHT22;31949;51.404;-0.038;2024-03-02T13:52:37;10.30;99.90
46231;DHT22;31949;51.404;-0.038;2024-03-02T13:55:04;10.30;99.90
46231;DHT22;31949;51.404;-0.038;2024-03-02T13:57:32;10.30;99.90
46231;DHT22;31949;51.404;-0.038;2024-03-02T13:59:59;10.10;99.90
46231;DHT22;31949;51.404;-0.038;2024-03-02T14:02:38;10.10;99.90
46231;DHT22;31949;51.404;-0.038;2024-03-02T14:05:05;10.10;99.90
46231;DHT22;31949;51.404;-0.038;2024-03-02T14:07:33;10.20;99.90
46231;DHT22;31949;51.404;-0.038;2024-03-02T14:10:02;10.30;99.90
46231;DHT22;31949;51.404;-0.038;2024-03-02T14:12:29;10.40;99.90
46231;DHT22;31949;51.404;-0.038;2024-03-02T14:14:57;10.40;99.90
46231;DHT22;31949;51.404;-0.038;2024-03-02T14:17:30;10.40;99.90
46231;DHT22;31949;51.404;-0.038;2024-03-02T14:20:00;10.50;99.90
46231;DHT22;31949;51.404;-0.038;2024-03-02T14:22:28;10.40;99.90
46231;DHT22;31949;51.404;-0.038;2024-03-02T14:24:55;10.30;99.90
46231;DHT22;31949;51.404;-0.038;2024-03-02T14:27:22;10.40;99.90
46231;DHT22;31949;51.404;-0.038;2024-03-02T14:30:10;10.50;99.90
46231;DHT22;31949;51.404;-0.038;2024-03-02T14:32:38;10.30;99.90
46231;DHT22;31949;51.404;-0.038;2024-03-02T14:35:05;10.40;99.90
46231;DHT22;31949;51.404;-0.038;2024-03-02T14:37:32;10.60;99.90
46231;DHT22;31949;51.404;-0.038;2024-03-02T14:40:00;10.70;99.90
46231;DHT22;31949;51.404;-0.038;2024-03-02T14:42:27;10.60;99.90
46231;DHT22;31949;51.404;-0.038;2024-03-02T14:44:58;10.60;99.90
46231;DHT22;31949;51.404;-0.038;2024-03-02T14:47:26;10.60;99.90
46231;DHT22;31949;51.404;-0.038;2024-03-02T14:49:53;10.40;99.90
46231;DHT22;31949;51.404;-0.038;2024-03-02T14:52:20;10.30;99.90
46231;DHT22;31949;51.404;-0.038;2024-03-02T14:54:48;10.20;99.90
46231;DHT22;31949;51.404;-0.038;2024-03-02T14:57:15;10.10;99.90
46231;DHT22;31949;51.404;-0.038;2024-03-02T14:59:43;10.00;99.90
46231;DHT22;31949;51.404;-0.038;2024-03-02T15:02:10;10.00;99.90
46231;DHT22;31949;51.404;-0.038;2024-03-02T15:04:37;9.80;99.90
46231;DHT22;31949;51.404;-0.038;2024-03-02T15:07:05;9.70;99.90
46231;DHT22;31949;51.404;-0.038;2024-03-02T15:09:32;9.60;99.90
46231;DHT22;31949;51.404;-0.038;2024-03-02T15:12:02;9.60;99.90
46231;DHT22;31949;51.404;-0.038;2024-03-02T15:14:30;9.50;99.90
46231;DHT22;31949;51.404;-0.038;2024-03-02T15:16:57;9.60;99.90
46231;DHT22;31949;51.404;-0.038;2024-03-02T15:19:25;9.70;99.90
46231;DHT22;31949;51.404;-0.038;2024-03-02T15:21:53;9.70;99.90
46231;DHT22;31949;51.404;-0.038;2024-03-02T15:24:20;9.70;99.90
46231;DHT22;31949;51.404;-0.038;2024-03-02T15:26:48;9.60;99.90
46231;DHT22;31949;51.404;-0.038;2024-03-02T15:29:15;9.50;99.90
46231;DHT22;31949;51.404;-0.038;2024-03-02T15:31:42;9.50;99.90
46231;DHT22;31949;51.404;-0.038;2024-03-02T15:34:10;9.50;99.90
46231;DHT22;31949;51.404;-0.038;2024-03-02T15:36:37;9.30;99.90
46231;DHT22;31949;51.404;-0.038;2024-03-02T15:39:04;9.30;99.90
46231;DHT22;31949;51.404;-0.038;2024-03-02T15:41:36;9.30;99.90